Ningbo Seal — VRJD3 — position and weather

sailwx.info

Track history (hours):
 
Tides and Currents Weather Stations Pressure Air Temp Water Temp Dewpoint Dewpoint Depression Visibility Wind Speed Wind Dir Waves Ship Positions

Ningbo Seal

Last reported at 2014-Nov-22 07:21 UTC. Time now 2014-Nov-27 06:42 UTC.
Position N 23°44' E 118°25'.

Length 224 m; draft 6.8 m.

Type: Cargo ship. MMSI: 477628100.

Date/timePositionNaut miles runAvg speedWind from/ knotsBaromVisibWave heightAir tempDewpointWater temp
2014-Nov-22 07:21N 23°44' E 118°25'1113.4
2014-Nov-22 06:30N 23°55' E 118°23'1314.1
2014-Nov-22 05:34N 24°08' E 118°20'1311.7
2014-Nov-22 04:29N 24°18' E 118°12'1011.0
2014-Nov-22 03:33N 24°25' E 118°03'1 0.6
2014-Nov-22 02:28N 24°25' E 118°03'0 0.0
2014-Nov-21 23:10N 24°25' E 118°03'0 0.0
2014-Nov-21 21:28N 24°25' E 118°03'0 0.0
2014-Nov-21 20:28N 24°25' E 118°03'0 0.0
2014-Nov-21 18:23N 24°25' E 118°03'0 0.0
2014-Nov-21 15:04N 24°25' E 118°03'0 0.0
2014-Nov-21 13:29N 24°25' E 118°03'0 0.0
2014-Nov-21 09:28N 24°25' E 118°03'0 0.0
2014-Nov-21 08:10N 24°25' E 118°03'0 0.0
2014-Nov-21 07:04N 24°25' E 118°03'0 0.0
2014-Nov-21 05:10N 24°25' E 118°03'0 0.0
2014-Nov-21 04:22N 24°25' E 118°03'0 0.0
2014-Nov-21 03:28N 24°25' E 118°03'0 0.0
2014-Nov-21 02:22N 24°25' E 118°03'0 0.0
2014-Nov-21 00:22N 24°25' E 118°03'0 0.0
2014-Nov-20 23:28N 24°25' E 118°03'0 0.0
2014-Nov-20 21:22N 24°25' E 118°03'0 0.0
2014-Nov-20 20:28N 24°25' E 118°03'0 0.0
2014-Nov-20 19:22N 24°25' E 118°03'0 0.0
2014-Nov-20 18:28N 24°25' E 118°03'0 0.0
2014-Nov-20 16:28N 24°25' E 118°03'0 0.0
2014-Nov-20 15:22N 24°25' E 118°03'0 0.0
2014-Nov-20 14:28N 24°25' E 118°03'0 0.0
2014-Nov-20 13:04N 24°25' E 118°03'0 0.0
2014-Nov-20 11:10N 24°25' E 118°03'0 0.0
2014-Nov-20 07:22N 24°25' E 118°03'0 0.0
2014-Nov-20 06:04N 24°25' E 118°03'0 0.0
2014-Nov-20 05:16N 24°25' E 118°03'0 0.0
2014-Nov-20 04:22N 24°25' E 118°03'0 0.0
2014-Nov-20 03:23N 24°25' E 118°03'0 0.0
2014-Nov-20 02:28N 24°25' E 118°03'0 0.0
2014-Nov-20 01:04N 24°25' E 118°03'0 0.0
2014-Nov-20 00:16N 24°25' E 118°03'0 0.0
2014-Nov-19 23:28N 24°25' E 118°03'0 0.0
2014-Nov-19 21:28N 24°25' E 118°03'0 0.0
2014-Nov-19 20:10N 24°25' E 118°03'0 0.0
2014-Nov-19 19:28N 24°25' E 118°03'0 0.0
2014-Nov-19 17:04N 24°25' E 118°03'0 0.0
2014-Nov-19 16:04N 24°25' E 118°03'0 0.0
2014-Nov-19 15:28N 24°25' E 118°03'0 0.0
2014-Nov-19 14:16N 24°25' E 118°03'0 0.0
2014-Nov-19 13:28N 24°25' E 118°03'0 0.0
2014-Nov-19 11:28N 24°25' E 118°03'0 0.0
2014-Nov-19 10:28N 24°25' E 118°03'0 0.0
2014-Nov-19 05:16N 24°25' E 118°03'0 0.0
2014-Nov-19 04:22N 24°25' E 118°03'0 0.0
2014-Nov-19 02:22N 24°25' E 118°03'0 0.0
2014-Nov-18 22:28N 24°25' E 118°03'0 0.0
2014-Nov-18 21:10N 24°25' E 118°03'0 0.0
2014-Nov-18 19:16N 24°25' E 118°03'0 0.0
2014-Nov-18 18:28N 24°25' E 118°03'0 0.0
2014-Nov-18 16:28N 24°25' E 118°03'0 0.0
2014-Nov-18 14:30N 24°25' E 118°03'4 3.4
2014-Nov-18 13:20N 24°23' E 118°07'5 6.0
2014-Nov-18 12:32N 24°20' E 118°11'2 0.4
2014-Nov-18 08:05N 24°19' E 118°10'0 0.1
2014-Nov-18 07:29N 24°19' E 118°10'0 0.1
2014-Nov-18 06:29N 24°19' E 118°10'0 0.0
2014-Nov-18 04:17N 24°19' E 118°10'0 0.0
2014-Nov-18 03:17N 24°19' E 118°10'0 0.0
2014-Nov-18 00:23N 24°19' E 118°10'0 0.1
2014-Nov-17 22:29N 24°19' E 118°10'0 0.0
2014-Nov-17 21:05N 24°19' E 118°10'0 0.1
2014-Nov-17 20:17N 24°19' E 118°10'0 0.0
2014-Nov-17 19:17N 24°19' E 118°10'0 0.0
2014-Nov-17 17:17N 24°19' E 118°10'0 0.0
2014-Nov-17 16:29N 24°19' E 118°10'0 0.1
2014-Nov-17 15:29N 24°19' E 118°10'0 0.0
2014-Nov-17 09:05N 24°19' E 118°10'0 0.0
2014-Nov-17 06:05N 24°19' E 118°10'0 0.0
2014-Nov-17 04:29N 24°19' E 118°10'0 0.0
2014-Nov-17 03:05N 24°19' E 118°10'0 0.0
2014-Nov-17 02:11N 24°19' E 118°10'0 0.0
2014-Nov-17 01:17N 24°19' E 118°10'0 0.0
2014-Nov-16 23:17N 24°19' E 118°10'0 0.1
2014-Nov-16 22:23N 24°19' E 118°10'0 0.1
2014-Nov-16 21:23N 24°19' E 118°10'0 0.0
2014-Nov-16 20:29N 24°19' E 118°10'0 0.0
2014-Nov-16 18:29N 24°19' E 118°10'0 0.1
2014-Nov-16 17:29N 24°19' E 118°10'0 0.0
2014-Nov-16 16:29N 24°19' E 118°10'0 0.0
2014-Nov-16 15:29N 24°19' E 118°10'0 0.0
2014-Nov-16 08:11N 24°19' E 118°10'0 0.0
2014-Nov-16 07:17N 24°19' E 118°10'0 0.1
2014-Nov-16 06:24N 24°19' E 118°10'0 0.0
2014-Nov-16 05:23N 24°19' E 118°10'0 0.3
2014-Nov-16 04:32N 24°19' E 118°10'5 5.0
2014-Nov-16 03:32N 24°14' E 118°13'9 7.6
2014-Nov-16 02:23N 24°13' E 118°22'2311.4
2014-Nov-16 00:23N 24°22' E 118°45'1112.8
2014-Nov-15 23:32N 24°26' E 118°56'1212.0
2014-Nov-15 22:33N 24°31' E 119°08'1211.7
2014-Nov-15 21:33N 24°38' E 119°18'  
Track history (hours):
 
Tides and Currents Weather Stations Pressure Air Temp Water Temp Dewpoint Dewpoint Depression Visibility Wind Speed Wind Dir Waves Ship Positions

Ningbo Seal

Last reported at 2014-Nov-22 07:21 UTC. Time now 2014-Nov-27 06:42 UTC.
Position N 23°44' E 118°25'.

Length 224 m; draft 6.8 m.

Type: Cargo ship. MMSI: 477628100.

Date/timePositionNaut miles runAvg speedWind from/ knotsBaromVisibWave heightAir tempDewpointWater temp
2014-Nov-22 07:21N 23°44' E 118°25'1113.4
2014-Nov-22 06:30N 23°55' E 118°23'1314.1
2014-Nov-22 05:34N 24°08' E 118°20'1311.7
2014-Nov-22 04:29N 24°18' E 118°12'1011.0
2014-Nov-22 03:33N 24°25' E 118°03'1 0.6
2014-Nov-22 02:28N 24°25' E 118°03'0 0.0
2014-Nov-21 23:10N 24°25' E 118°03'0 0.0
2014-Nov-21 21:28N 24°25' E 118°03'0 0.0
2014-Nov-21 20:28N 24°25' E 118°03'0 0.0
2014-Nov-21 18:23N 24°25' E 118°03'0 0.0
2014-Nov-21 15:04N 24°25' E 118°03'0 0.0
2014-Nov-21 13:29N 24°25' E 118°03'0 0.0
2014-Nov-21 09:28N 24°25' E 118°03'0 0.0
2014-Nov-21 08:10N 24°25' E 118°03'0 0.0
2014-Nov-21 07:04N 24°25' E 118°03'0 0.0
2014-Nov-21 05:10N 24°25' E 118°03'0 0.0
2014-Nov-21 04:22N 24°25' E 118°03'0 0.0
2014-Nov-21 03:28N 24°25' E 118°03'0 0.0
2014-Nov-21 02:22N 24°25' E 118°03'0 0.0
2014-Nov-21 00:22N 24°25' E 118°03'0 0.0
2014-Nov-20 23:28N 24°25' E 118°03'0 0.0
2014-Nov-20 21:22N 24°25' E 118°03'0 0.0
2014-Nov-20 20:28N 24°25' E 118°03'0 0.0
2014-Nov-20 19:22N 24°25' E 118°03'0 0.0
2014-Nov-20 18:28N 24°25' E 118°03'0 0.0
2014-Nov-20 16:28N 24°25' E 118°03'0 0.0
2014-Nov-20 15:22N 24°25' E 118°03'0 0.0
2014-Nov-20 14:28N 24°25' E 118°03'0 0.0
2014-Nov-20 13:04N 24°25' E 118°03'0 0.0
2014-Nov-20 11:10N 24°25' E 118°03'0 0.0
2014-Nov-20 07:22N 24°25' E 118°03'0 0.0
2014-Nov-20 06:04N 24°25' E 118°03'0 0.0
2014-Nov-20 05:16N 24°25' E 118°03'0 0.0
2014-Nov-20 04:22N 24°25' E 118°03'0 0.0
2014-Nov-20 03:23N 24°25' E 118°03'0 0.0
2014-Nov-20 02:28N 24°25' E 118°03'0 0.0
2014-Nov-20 01:04N 24°25' E 118°03'0 0.0
2014-Nov-20 00:16N 24°25' E 118°03'0 0.0
2014-Nov-19 23:28N 24°25' E 118°03'0 0.0
2014-Nov-19 21:28N 24°25' E 118°03'0 0.0
2014-Nov-19 20:10N 24°25' E 118°03'0 0.0
2014-Nov-19 19:28N 24°25' E 118°03'0 0.0
2014-Nov-19 17:04N 24°25' E 118°03'0 0.0
2014-Nov-19 16:04N 24°25' E 118°03'0 0.0
2014-Nov-19 15:28N 24°25' E 118°03'0 0.0
2014-Nov-19 14:16N 24°25' E 118°03'0 0.0
2014-Nov-19 13:28N 24°25' E 118°03'0 0.0
2014-Nov-19 11:28N 24°25' E 118°03'0 0.0
2014-Nov-19 10:28N 24°25' E 118°03'0 0.0
2014-Nov-19 05:16N 24°25' E 118°03'0 0.0
2014-Nov-19 04:22N 24°25' E 118°03'0 0.0
2014-Nov-19 02:22N 24°25' E 118°03'0 0.0
2014-Nov-18 22:28N 24°25' E 118°03'0 0.0
2014-Nov-18 21:10N 24°25' E 118°03'0 0.0
2014-Nov-18 19:16N 24°25' E 118°03'0 0.0
2014-Nov-18 18:28N 24°25' E 118°03'0 0.0
2014-Nov-18 16:28N 24°25' E 118°03'0 0.0
2014-Nov-18 14:30N 24°25' E 118°03'4 3.4
2014-Nov-18 13:20N 24°23' E 118°07'5 6.0
2014-Nov-18 12:32N 24°20' E 118°11'2 0.4
2014-Nov-18 08:05N 24°19' E 118°10'0 0.1
2014-Nov-18 07:29N 24°19' E 118°10'0 0.1
2014-Nov-18 06:29N 24°19' E 118°10'0 0.0
2014-Nov-18 04:17N 24°19' E 118°10'0 0.0
2014-Nov-18 03:17N 24°19' E 118°10'0 0.0
2014-Nov-18 00:23N 24°19' E 118°10'0 0.1
2014-Nov-17 22:29N 24°19' E 118°10'0 0.0
2014-Nov-17 21:05N 24°19' E 118°10'0 0.1
2014-Nov-17 20:17N 24°19' E 118°10'0 0.0
2014-Nov-17 19:17N 24°19' E 118°10'0 0.0
2014-Nov-17 17:17N 24°19' E 118°10'0 0.0
2014-Nov-17 16:29N 24°19' E 118°10'0 0.1
2014-Nov-17 15:29N 24°19' E 118°10'0 0.0
2014-Nov-17 09:05N 24°19' E 118°10'0 0.0
2014-Nov-17 06:05N 24°19' E 118°10'0 0.0
2014-Nov-17 04:29N 24°19' E 118°10'0 0.0
2014-Nov-17 03:05N 24°19' E 118°10'0 0.0
2014-Nov-17 02:11N 24°19' E 118°10'0 0.0
2014-Nov-17 01:17N 24°19' E 118°10'0 0.0
2014-Nov-16 23:17N 24°19' E 118°10'0 0.1
2014-Nov-16 22:23N 24°19' E 118°10'0 0.1
2014-Nov-16 21:23N 24°19' E 118°10'0 0.0
2014-Nov-16 20:29N 24°19' E 118°10'0 0.0
2014-Nov-16 18:29N 24°19' E 118°10'0 0.1
2014-Nov-16 17:29N 24°19' E 118°10'0 0.0
2014-Nov-16 16:29N 24°19' E 118°10'0 0.0
2014-Nov-16 15:29N 24°19' E 118°10'0 0.0
2014-Nov-16 08:11N 24°19' E 118°10'0 0.0
2014-Nov-16 07:17N 24°19' E 118°10'0 0.1
2014-Nov-16 06:24N 24°19' E 118°10'0 0.0
2014-Nov-16 05:23N 24°19' E 118°10'0 0.3
2014-Nov-16 04:32N 24°19' E 118°10'5 5.0
2014-Nov-16 03:32N 24°14' E 118°13'9 7.6
2014-Nov-16 02:23N 24°13' E 118°22'2311.4
2014-Nov-16 00:23N 24°22' E 118°45'1112.8
2014-Nov-15 23:32N 24°26' E 118°56'1212.0
2014-Nov-15 22:33N 24°31' E 119°08'1211.7
2014-Nov-15 21:33N 24°38' E 119°18'  

Dump ship's entire track history